createdAt,value
2022-11-18T00:01:34.141Z,94079.53
2022-11-18T00:04:00.762Z,94071.22
2022-11-18T00:06:29.345Z,94076.50
2022-11-18T00:08:56.233Z,94066.81
2022-11-18T00:11:25.804Z,94071.44
2022-11-18T00:13:52.236Z,94063.94
2022-11-18T00:16:18.745Z,94061.47
2022-11-18T00:18:45.235Z,94073.53
2022-11-18T00:21:12.652Z,94085.81
2022-11-18T00:23:40.378Z,94081.31
2022-11-18T00:26:13.428Z,94084.00
2022-11-18T00:28:41.335Z,94098.44
2022-11-18T00:31:13.111Z,94100.69
2022-11-18T00:33:40.332Z,94109.75
2022-11-18T00:36:09.953Z,94110.81
2022-11-18T00:38:36.564Z,94109.16
2022-11-18T00:41:06.559Z,94123.19
2022-11-18T00:43:33.913Z,94123.16
2022-11-18T00:46:00.961Z,94132.91
2022-11-18T00:48:28.110Z,94128.66
2022-11-18T00:51:05.770Z,94136.59
2022-11-18T00:53:32.245Z,94157.03
2022-11-18T00:55:58.879Z,94153.59
2022-11-18T00:58:25.354Z,94155.63
2022-11-18T01:00:52.474Z,94146.94
2022-11-18T01:03:20.167Z,94154.81
2022-11-18T01:05:46.951Z,94173.03
2022-11-18T01:08:14.220Z,94178.28
2022-11-18T01:10:41.114Z,94183.53
2022-11-18T01:13:12.515Z,94181.88
2022-11-18T01:15:41.641Z,94184.72
2022-11-18T01:18:08.402Z,94201.31
2022-11-18T01:20:35.381Z,94192.34
2022-11-18T01:23:01.900Z,94197.66
2022-11-18T01:25:29.201Z,94203.38
2022-11-18T01:27:55.740Z,94204.97
2022-11-18T01:30:23.435Z,94210.59
2022-11-18T01:32:49.900Z,94205.72
2022-11-18T01:35:16.438Z,94210.53
2022-11-18T01:37:42.897Z,94219.06
2022-11-18T01:40:11.111Z,94215.44
2022-11-18T01:42:38.312Z,94215.47
2022-11-18T01:45:14.332Z,94220.78
2022-11-18T01:48:00.427Z,94214.69
2022-11-18T01:50:29.495Z,94226.03
2022-11-18T01:53:04.097Z,94227.66
2022-11-18T01:55:35.464Z,94228.47
2022-11-18T01:58:10.735Z,94224.44
2022-11-18T02:00:39.246Z,94227.06
2022-11-18T02:03:06.808Z,94241.03
2022-11-18T02:05:35.858Z,94244.22
2022-11-18T02:08:03.522Z,94238.50
2022-11-18T02:10:29.980Z,94249.38
2022-11-18T02:12:57.564Z,94242.50
2022-11-18T02:15:42.662Z,94236.50
2022-11-18T02:18:26.965Z,94241.16
2022-11-18T02:21:16.062Z,94238.13
2022-11-18T02:24:15.698Z,94242.03
2022-11-18T02:26:54.403Z,94238.59
2022-11-18T02:29:28.754Z,94247.72
2022-11-18T02:32:01.784Z,94245.47
2022-11-18T02:34:37.310Z,94249.28
2022-11-18T02:37:06.676Z,94243.06
2022-11-18T02:39:39.375Z,94246.28
2022-11-18T02:42:11.815Z,94249.13
2022-11-18T02:44:47.797Z,94253.97
2022-11-18T02:47:18.053Z,94262.25
2022-11-18T02:49:50.661Z,94251.91
2022-11-18T02:52:20.891Z,94259.19
2022-11-18T02:54:50.946Z,94254.38
2022-11-18T02:57:20.723Z,94242.06
2022-11-18T02:59:47.392Z,94253.19
2022-11-18T03:02:19.178Z,94248.72
2022-11-18T03:04:48.798Z,94259.22
2022-11-18T03:07:23.430Z,94254.41
2022-11-18T03:09:52.764Z,94255.59
2022-11-18T03:12:37.174Z,94277.06
2022-11-18T03:15:36.262Z,94272.75
2022-11-18T03:18:11.932Z,94272.09
2022-11-18T03:20:52.243Z,94269.88
2022-11-18T03:23:35.488Z,94276.19
2022-11-18T03:26:07.452Z,94281.44
2022-11-18T03:28:50.226Z,94285.09
2022-11-18T03:31:28.581Z,94295.88
2022-11-18T03:34:07.556Z,94292.38
2022-11-18T03:36:41.616Z,94293.56
2022-11-18T03:39:12.946Z,94299.03
2022-11-18T03:41:53.560Z,94293.25
2022-11-18T03:44:29.049Z,94297.94
2022-11-18T03:47:12.803Z,94307.84
2022-11-18T03:49:51.187Z,94307.63
2022-11-18T03:52:25.543Z,94303.81
2022-11-18T03:54:57.543Z,94309.06
2022-11-18T03:57:45.537Z,94315.75
2022-11-18T04:00:16.178Z,94311.47
2022-11-18T04:02:46.036Z,94318.75
2022-11-18T04:05:15.991Z,94322.84
2022-11-18T04:07:50.113Z,94328.91
2022-11-18T04:10:20.141Z,94332.53
2022-11-18T04:13:07.706Z,94345.94
2022-11-18T04:15:38.584Z,94338.09
2022-11-18T04:18:05.541Z,94348.28
2022-11-18T04:20:32.060Z,94358.75
2022-11-18T04:22:58.524Z,94356.22
2022-11-18T04:25:25.003Z,94363.25
2022-11-18T04:27:51.890Z,94359.97
2022-11-18T04:30:18.800Z,94354.69
2022-11-18T04:32:45.767Z,94365.00
2022-11-18T04:35:12.247Z,94369.78
2022-11-18T04:37:38.848Z,94372.88
2022-11-18T04:40:06.060Z,94384.91
2022-11-18T04:42:32.666Z,94375.56
2022-11-18T04:44:59.129Z,94367.38
2022-11-18T04:47:25.621Z,94375.47
2022-11-18T04:49:52.066Z,94374.16
2022-11-18T04:52:18.779Z,94380.34
2022-11-18T04:54:45.319Z,94382.53
2022-11-18T04:57:11.881Z,94394.94
2022-11-18T04:59:38.762Z,94385.56
2022-11-18T05:02:05.570Z,94392.50
2022-11-18T05:04:34.551Z,94390.88
2022-11-18T05:07:03.662Z,94389.44
2022-11-18T05:09:32.199Z,94397.84
2022-11-18T05:11:59.822Z,94391.69
2022-11-18T05:14:27.507Z,94391.06
2022-11-18T05:16:55.654Z,94398.50
2022-11-18T05:19:22.460Z,94411.06
2022-11-18T05:21:49.198Z,94403.59
2022-11-18T05:24:15.743Z,94412.31
2022-11-18T05:26:42.475Z,94412.81
2022-11-18T05:29:09.108Z,94412.00
2022-11-18T05:31:35.694Z,94411.63
2022-11-18T05:34:02.160Z,94416.72
2022-11-18T05:36:28.910Z,94426.38
2022-11-18T05:38:58.569Z,94435.47
2022-11-18T05:41:25.294Z,94429.47
2022-11-18T05:43:51.740Z,94441.72
2022-11-18T05:46:18.215Z,94433.31
2022-11-18T05:48:44.671Z,94445.75
2022-11-18T05:51:11.122Z,94433.16
2022-11-18T05:53:37.582Z,94444.50
2022-11-18T05:56:09.085Z,94442.41
2022-11-18T05:58:35.544Z,94444.91
2022-11-18T06:01:05.598Z,94452.00
2022-11-18T06:03:37.994Z,94458.16
2022-11-18T06:06:07.525Z,94465.38
2022-11-18T06:08:41.020Z,94471.59
2022-11-18T06:11:14.128Z,94469.75
2022-11-18T06:13:48.104Z,94473.34
2022-11-18T06:16:14.658Z,94481.63
2022-11-18T06:18:41.999Z,94494.47
2022-11-18T06:21:08.545Z,94497.53
2022-11-18T06:23:39.020Z,94509.28
2022-11-18T06:26:07.706Z,94516.38
2022-11-18T06:28:34.675Z,94503.28
2022-11-18T06:31:01.151Z,94510.75
2022-11-18T06:33:27.641Z,94516.19
2022-11-18T06:35:54.112Z,94510.75
2022-11-18T06:38:24.010Z,94514.78
2022-11-18T06:40:50.981Z,94509.84
2022-11-18T06:43:17.529Z,94510.59
2022-11-18T06:45:44.168Z,94512.03
2022-11-18T06:48:10.615Z,94508.66
2022-11-18T06:50:37.103Z,94513.63
2022-11-18T06:53:03.647Z,94525.53
2022-11-18T06:55:30.156Z,94520.72
2022-11-18T06:57:56.975Z,94520.47
2022-11-18T07:00:23.522Z,94527.41
2022-11-18T07:02:49.987Z,94536.03
2022-11-18T07:05:16.516Z,94537.03
2022-11-18T07:07:42.998Z,94539.97
2022-11-18T07:10:09.883Z,94541.00
2022-11-18T07:12:36.532Z,94549.91
2022-11-18T07:15:03.351Z,94556.81
2022-11-18T07:17:30.707Z,94571.56
2022-11-18T07:19:57.329Z,94564.84
2022-11-18T07:22:24.174Z,94566.41
2022-11-18T07:24:50.633Z,94579.63
2022-11-18T07:27:17.230Z,94586.88
2022-11-18T07:29:43.734Z,94588.22
2022-11-18T07:32:10.191Z,94592.38
2022-11-18T07:34:36.665Z,94601.84
2022-11-18T07:37:03.138Z,94603.22
2022-11-18T07:39:29.586Z,94603.72
2022-11-18T07:41:56.034Z,94600.84
2022-11-18T07:44:22.494Z,94611.25
2022-11-18T07:46:48.951Z,94609.31
2022-11-18T07:49:15.850Z,94616.75
2022-11-18T07:51:42.516Z,94613.13
2022-11-18T07:54:15.280Z,94618.81
2022-11-18T07:56:41.778Z,94620.25
2022-11-18T07:59:08.771Z,94618.72
2022-11-18T08:01:35.506Z,94627.63
2022-11-18T08:04:07.883Z,94636.00
2022-11-18T08:06:35.073Z,94625.19
2022-11-18T08:09:02.054Z,94639.41
2022-11-18T08:11:28.527Z,94640.22
2022-11-18T08:13:55.009Z,94638.53
2022-11-18T08:16:25.409Z,94650.28
2022-11-18T08:18:52.869Z,94652.03
2022-11-18T08:21:21.336Z,94658.03
2022-11-18T08:23:53.728Z,94649.19
2022-11-18T08:26:21.183Z,94649.19
2022-11-18T08:28:48.699Z,94659.44
2022-11-18T08:31:19.679Z,94659.06
2022-11-18T08:33:46.884Z,94666.06
2022-11-18T08:36:20.742Z,94663.75
2022-11-18T08:38:47.444Z,94671.09
2022-11-18T08:41:16.639Z,94662.97
2022-11-18T08:43:43.153Z,94662.84
2022-11-18T08:46:09.652Z,94661.69
2022-11-18T08:48:36.373Z,94663.59
2022-11-18T08:51:03.763Z,94665.22
2022-11-18T08:53:30.265Z,94663.13
2022-11-18T08:55:57.708Z,94665.50
2022-11-18T08:58:24.805Z,94676.19
2022-11-18T09:00:51.261Z,94679.53
2022-11-18T09:03:17.790Z,94677.38
2022-11-18T09:05:44.638Z,94686.06
2022-11-18T09:08:11.261Z,94692.31
2022-11-18T09:10:37.936Z,94691.28
2022-11-18T09:13:25.260Z,94698.19
2022-11-18T09:15:51.467Z,94686.31
2022-11-18T09:18:17.910Z,94698.00
2022-11-18T09:20:57.534Z,94693.22
2022-11-18T09:23:24.296Z,94693.72
2022-11-18T09:26:05.253Z,94689.59
2022-11-18T09:28:32.364Z,94702.53
2022-11-18T09:30:59.789Z,94703.34
2022-11-18T09:33:27.563Z,94708.25
2022-11-18T09:35:54.126Z,94709.13
2022-11-18T09:38:20.617Z,94709.34
2022-11-18T09:40:56.046Z,94711.38
2022-11-18T09:43:36.229Z,94710.75
2022-11-18T09:46:20.893Z,94712.06
2022-11-18T09:48:49.568Z,94712.97
2022-11-18T09:51:16.064Z,94717.97
2022-11-18T09:53:44.775Z,94705.13
2022-11-18T09:56:16.189Z,94722.88
2022-11-18T09:58:44.893Z,94724.38
2022-11-18T10:01:20.438Z,94714.63
2022-11-18T10:03:47.360Z,94723.09
2022-11-18T10:06:33.227Z,94718.31
2022-11-18T10:09:20.942Z,94725.06
2022-11-18T10:12:20.217Z,94722.78
2022-11-18T10:15:07.119Z,94730.06
2022-11-18T10:18:18.812Z,94733.47
2022-11-18T10:20:58.416Z,94740.81
2022-11-18T10:23:53.631Z,94729.03
2022-11-18T10:26:39.047Z,94730.19
2022-11-18T10:29:07.290Z,94722.94
2022-11-18T10:31:40.762Z,94727.56
2022-11-18T10:34:13.369Z,94725.81
2022-11-18T10:36:40.541Z,94736.72
2022-11-18T10:39:10.774Z,94728.81
2022-11-18T10:41:46.310Z,94730.09
2022-11-18T10:44:34.479Z,94722.88
2022-11-18T10:47:15.185Z,94720.56
2022-11-18T10:49:41.881Z,94719.13
2022-11-18T10:52:10.095Z,94725.03
2022-11-18T10:54:37.748Z,94714.78
2022-11-18T10:57:14.110Z,94720.38
2022-11-18T10:59:51.552Z,94715.97
2022-11-18T11:02:31.269Z,94718.22
2022-11-18T11:05:17.938Z,94711.69
2022-11-18T11:07:45.981Z,94715.41
2022-11-18T11:10:12.448Z,94709.31
2022-11-18T11:12:43.832Z,94708.53
2022-11-18T11:15:24.446Z,94710.03
2022-11-18T11:17:59.759Z,94714.47
2022-11-18T11:20:26.569Z,94722.72
2022-11-18T11:22:55.385Z,94718.28
2022-11-18T11:28:25.550Z,94722.41
2022-11-18T11:31:23.040Z,94720.34
2022-11-18T11:33:52.282Z,94711.84
2022-11-18T11:36:43.747Z,94715.97
2022-11-18T11:39:28.698Z,94714.75
2022-11-18T11:42:08.544Z,94712.13
2022-11-18T11:45:09.335Z,94713.31
2022-11-18T11:48:06.655Z,94708.09
2022-11-18T11:50:39.729Z,94722.19
2022-11-18T11:53:27.097Z,94712.13
2022-11-18T11:56:22.930Z,94714.91
2022-11-18T11:59:23.672Z,94717.81
2022-11-18T12:02:08.775Z,94715.28
2022-11-18T12:05:02.798Z,94714.16
2022-11-18T12:07:54.035Z,94720.25
2022-11-18T12:10:48.504Z,94714.00
2022-11-18T12:13:46.249Z,94712.16
2022-11-18T12:16:18.740Z,94724.31
2022-11-18T12:18:56.900Z,94711.91
2022-11-18T12:21:44.751Z,94705.66
2022-11-18T12:24:17.215Z,94706.69
2022-11-18T12:26:46.527Z,94706.81
2022-11-18T12:29:19.384Z,94713.63
2022-11-18T12:31:48.388Z,94707.59
2022-11-18T12:34:38.370Z,94718.50
2022-11-18T12:37:26.092Z,94730.38
2022-11-18T12:39:55.588Z,94733.53
2022-11-18T12:42:42.247Z,94722.72
2022-11-18T12:45:42.559Z,94720.91
2022-11-18T12:48:27.312Z,94721.00
2022-11-18T12:50:55.569Z,94722.75
2022-11-18T12:53:34.284Z,94724.00
2022-11-18T12:56:09.552Z,94722.00
2022-11-18T12:58:36.705Z,94720.38
2022-11-18T13:01:05.688Z,94716.75
2022-11-18T13:03:32.492Z,94717.38
2022-11-18T13:06:01.858Z,94712.88
2022-11-18T13:08:29.835Z,94713.69
2022-11-18T13:11:01.617Z,94709.03
2022-11-18T13:13:33.887Z,94722.78
2022-11-18T13:16:24.142Z,94714.50
2022-11-18T13:18:52.794Z,94715.53
2022-11-18T13:21:28.783Z,94716.97
2022-11-18T13:24:01.009Z,94710.25
2022-11-18T13:26:31.974Z,94704.94
2022-11-18T13:29:20.980Z,94706.56
2022-11-18T13:32:14.624Z,94703.34
2022-11-18T13:34:53.356Z,94702.13
2022-11-18T13:37:29.308Z,94703.69
2022-11-18T13:39:57.056Z,94706.84
2022-11-18T13:42:26.177Z,94702.63
2022-11-18T13:44:56.532Z,94699.66
2022-11-18T13:47:49.417Z,94697.41
2022-11-18T13:50:21.967Z,94699.91
2022-11-18T13:52:54.431Z,94696.00
2022-11-18T13:55:25.933Z,94685.41
2022-11-18T13:58:02.104Z,94687.63
2022-11-18T14:00:31.501Z,94674.13
2022-11-18T14:03:06.315Z,94682.94
2022-11-18T14:05:32.979Z,94681.16
2022-11-18T14:08:06.326Z,94683.75
2022-11-18T14:10:44.222Z,94677.78
2022-11-18T14:13:27.609Z,94676.59
2022-11-18T14:16:16.352Z,94678.34
2022-11-18T14:18:47.077Z,94672.72
2022-11-18T14:21:14.326Z,94677.06
2022-11-18T14:23:43.936Z,94680.44
2022-11-18T14:26:10.401Z,94679.38
2022-11-18T14:28:38.108Z,94678.56
2022-11-18T14:31:07.210Z,94672.13
2022-11-18T14:33:38.440Z,94673.22
2022-11-18T14:36:15.181Z,94667.59
2022-11-18T14:39:31.417Z,94671.16
2022-11-18T14:41:38.527Z,94663.94
2022-11-18T14:44:08.491Z,94663.69
2022-11-18T14:46:37.957Z,94668.91
2022-11-18T14:49:11.763Z,94658.22
2022-11-18T14:51:38.220Z,94660.84
2022-11-18T14:54:04.804Z,94664.44
2022-11-18T14:56:34.731Z,94669.03
2022-11-18T14:59:01.208Z,94667.88
2022-11-18T15:01:30.474Z,94667.28
2022-11-18T15:03:57.771Z,94671.53
2022-11-18T15:06:24.301Z,94663.03
2022-11-18T15:08:52.775Z,94668.25
2022-11-18T15:11:20.231Z,94672.25
2022-11-18T15:13:46.800Z,94676.25
2022-11-18T15:16:21.020Z,94675.06
2022-11-18T15:18:51.466Z,94683.00
2022-11-18T15:21:18.036Z,94680.19
2022-11-18T15:23:44.928Z,94678.56
2022-11-18T15:26:35.617Z,94678.19
2022-11-18T15:29:02.097Z,94679.38
2022-11-18T15:31:28.794Z,94676.31
2022-11-18T15:33:55.342Z,94682.44
2022-11-18T15:36:24.269Z,94677.91
2022-11-18T15:38:53.254Z,94672.44
2022-11-18T15:41:24.827Z,94676.09
2022-11-18T15:43:51.778Z,94670.03
2022-11-18T15:46:20.337Z,94669.19
2022-11-18T15:48:47.269Z,94672.81
2022-11-18T15:51:15.157Z,94678.09
2022-11-18T15:53:41.757Z,94683.38
2022-11-18T15:56:16.736Z,94684.41
2022-11-18T15:58:43.211Z,94684.97
2022-11-18T16:01:09.768Z,94695.94
2022-11-18T16:03:36.841Z,94699.94
2022-11-18T16:06:03.983Z,94693.16
2022-11-18T16:08:30.688Z,94705.53
2022-11-18T16:10:58.034Z,94707.94
2022-11-18T16:13:24.492Z,94721.03
2022-11-18T16:15:50.942Z,94726.50
2022-11-18T16:18:17.640Z,94727.50
2022-11-18T16:20:44.078Z,94738.31
2022-11-18T16:23:10.531Z,94750.09
2022-11-18T16:25:42.451Z,94751.09
2022-11-18T16:28:08.898Z,94747.72
2022-11-18T16:30:35.354Z,94756.72
2022-11-18T16:33:01.924Z,94754.78
2022-11-18T16:35:28.424Z,94757.19
2022-11-18T16:37:55.456Z,94754.50
2022-11-18T16:40:22.285Z,94770.34
2022-11-18T16:42:50.389Z,94773.09
2022-11-18T16:45:18.364Z,94769.88
2022-11-18T16:47:45.617Z,94772.47
2022-11-18T16:50:12.184Z,94781.59
2022-11-18T16:52:38.742Z,94774.94
2022-11-18T16:55:05.536Z,94783.53
2022-11-18T16:57:32.052Z,94774.63
2022-11-18T16:59:58.492Z,94770.53
2022-11-18T17:02:25.002Z,94771.00
2022-11-18T17:04:51.671Z,94777.00
2022-11-18T17:07:18.287Z,94774.06
2022-11-18T17:09:44.832Z,94777.44
2022-11-18T17:12:11.311Z,94776.16
2022-11-18T17:14:37.960Z,94776.31
2022-11-18T17:17:04.563Z,94777.69
2022-11-18T17:19:31.027Z,94777.56
2022-11-18T17:21:57.529Z,94778.78
2022-11-18T17:24:24.445Z,94771.91
2022-11-18T17:26:52.279Z,94777.69
2022-11-18T17:29:19.993Z,94775.47
2022-11-18T17:31:46.810Z,94781.25
2022-11-18T17:34:14.991Z,94777.31
2022-11-18T17:36:42.570Z,94784.50
2022-11-18T17:39:11.297Z,94784.34
2022-11-18T17:41:38.600Z,94792.63
2022-11-18T17:44:07.469Z,94801.22
2022-11-18T17:46:38.014Z,94797.63
2022-11-18T17:49:11.922Z,94789.97
2022-11-18T17:51:38.517Z,94791.59
2022-11-18T17:54:05.519Z,94786.69
2022-11-18T17:56:32.092Z,94789.03
2022-11-18T17:58:58.624Z,94791.69
2022-11-18T18:01:25.314Z,94788.84
2022-11-18T18:03:51.949Z,94789.44
2022-11-18T18:06:18.486Z,94789.56
2022-11-18T18:08:44.987Z,94783.91
2022-11-18T18:11:14.650Z,94789.16
2022-11-18T18:13:42.251Z,94782.06
2022-11-18T18:16:08.861Z,94783.63
2022-11-18T18:18:35.395Z,94774.81
2022-11-18T18:21:01.875Z,94772.44
2022-11-18T18:23:31.009Z,94773.31
2022-11-18T18:26:04.882Z,94780.34
2022-11-18T18:28:31.377Z,94782.19
2022-11-18T18:30:59.268Z,94779.50
2022-11-18T18:33:25.766Z,94776.66
2022-11-18T18:36:00.765Z,94777.09
2022-11-18T18:38:30.992Z,94783.38
2022-11-18T18:41:05.117Z,94778.97
2022-11-18T18:43:31.589Z,94775.53
2022-11-18T18:46:07.793Z,94787.50
2022-11-18T18:48:34.265Z,94791.34
2022-11-18T18:51:05.375Z,94786.00
2022-11-18T18:53:32.684Z,94786.81
2022-11-18T18:55:59.888Z,94787.41
2022-11-18T18:58:26.850Z,94776.59
2022-11-18T19:00:58.076Z,94777.44
2022-11-18T19:03:24.901Z,94786.22
2022-11-18T19:06:27.436Z,94779.72
2022-11-18T19:08:37.829Z,94784.63
2022-11-18T19:11:07.503Z,94784.94
2022-11-18T19:13:33.988Z,94790.13
2022-11-18T19:16:06.838Z,94782.22
2022-11-18T19:18:36.272Z,94790.34
2022-11-18T19:21:02.733Z,94786.50
2022-11-18T19:23:29.239Z,94792.34
2022-11-18T19:26:00.281Z,94794.44
2022-11-18T19:28:27.304Z,94796.44
2022-11-18T19:30:53.756Z,94792.53
2022-11-18T19:33:20.339Z,94800.09
2022-11-18T19:35:46.826Z,94800.88
2022-11-18T19:38:13.285Z,94796.81
2022-11-18T19:40:39.723Z,94797.63
2022-11-18T19:43:06.513Z,94793.78
2022-11-18T19:45:33.063Z,94800.44
2022-11-18T19:47:59.549Z,94787.50
2022-11-18T19:50:26.096Z,94797.56
2022-11-18T19:52:52.571Z,94792.91
2022-11-18T19:55:19.141Z,94797.72
2022-11-18T19:57:45.597Z,94799.53
2022-11-18T20:00:12.424Z,94807.13
2022-11-18T20:02:38.877Z,94801.56
2022-11-18T20:05:05.722Z,94802.94
2022-11-18T20:07:32.249Z,94801.09
2022-11-18T20:09:59.389Z,94804.34
2022-11-18T20:12:25.852Z,94805.31
2022-11-18T20:14:52.307Z,94805.16
2022-11-18T20:17:18.756Z,94799.56
2022-11-18T20:19:45.225Z,94804.31
2022-11-18T20:22:11.668Z,94808.25
2022-11-18T20:24:38.141Z,94801.13
2022-11-18T20:27:04.624Z,94810.50
2022-11-18T20:29:31.057Z,94805.69
2022-11-18T20:31:57.659Z,94801.84
2022-11-18T20:34:24.090Z,94800.84
2022-11-18T20:36:50.547Z,94801.59
2022-11-18T20:39:17.941Z,94799.16
2022-11-18T20:41:45.143Z,94801.47
2022-11-18T20:44:11.587Z,94803.50
2022-11-18T20:46:38.075Z,94802.31
2022-11-18T20:49:04.528Z,94801.00
2022-11-18T20:51:30.964Z,94807.78
2022-11-18T20:53:58.010Z,94806.00
2022-11-18T20:56:26.662Z,94802.56
2022-11-18T20:58:53.539Z,94808.56
2022-11-18T21:01:28.632Z,94802.13
2022-11-18T21:04:00.648Z,94806.63
2022-11-18T21:06:29.916Z,94799.75
2022-11-18T21:09:01.594Z,94805.78
2022-11-18T21:11:28.653Z,94807.00
2022-11-18T21:13:55.273Z,94797.75
2022-11-18T21:16:22.567Z,94804.88
2022-11-18T21:18:49.049Z,94799.97
2022-11-18T21:21:15.653Z,94797.91
2022-11-18T21:23:42.107Z,94794.72
2022-11-18T21:26:13.168Z,94799.56
2022-11-18T21:28:40.054Z,94797.50
2022-11-18T21:31:08.693Z,94796.75
2022-11-18T21:33:35.188Z,94794.66
2022-11-18T21:36:01.620Z,94793.69
2022-11-18T21:38:28.087Z,94791.66
2022-11-18T21:40:54.616Z,94794.22
2022-11-18T21:43:32.812Z,94789.38
2022-11-18T21:46:10.391Z,94799.03
2022-11-18T21:48:37.553Z,94804.50
2022-11-18T21:51:07.188Z,94803.59
2022-11-18T21:53:33.854Z,94804.13
2022-11-18T21:56:06.696Z,94803.13
2022-11-18T21:58:33.379Z,94798.34
2022-11-18T22:01:10.546Z,94800.88
2022-11-18T22:03:40.866Z,94794.59
2022-11-18T22:06:09.619Z,94788.00
2022-11-18T22:08:37.715Z,94788.00
2022-11-18T22:11:06.625Z,94786.72
2022-11-18T22:13:33.292Z,94781.63
2022-11-18T22:16:01.202Z,94780.91
2022-11-18T22:18:32.774Z,94780.78
2022-11-18T22:21:01.096Z,94770.94
2022-11-18T22:23:32.101Z,94783.25
2022-11-18T22:26:01.325Z,94784.53
2022-11-18T22:28:27.894Z,94783.69
2022-11-18T22:30:54.395Z,94787.75
2022-11-18T22:33:20.840Z,94789.78
2022-11-18T22:35:47.291Z,94788.38
2022-11-18T22:38:13.736Z,94794.66
2022-11-18T22:40:40.168Z,94791.41
2022-11-18T22:43:06.608Z,94790.22
2022-11-18T22:45:33.063Z,94792.66
2022-11-18T22:47:59.540Z,94787.59
2022-11-18T22:50:26.084Z,94790.88
2022-11-18T22:52:52.540Z,94783.34
2022-11-18T22:55:19.018Z,94794.50
2022-11-18T22:57:45.516Z,94794.97
2022-11-18T23:00:12.604Z,94791.22
2022-11-18T23:02:39.078Z,94791.13
2022-11-18T23:05:05.893Z,94794.59
2022-11-18T23:07:32.384Z,94793.09
2022-11-18T23:09:58.839Z,94792.34
2022-11-18T23:12:25.315Z,94792.38
2022-11-18T23:14:51.767Z,94782.38
2022-11-18T23:17:18.251Z,94785.94
2022-11-18T23:19:44.708Z,94788.91
2022-11-18T23:22:11.701Z,94783.13
2022-11-18T23:24:38.548Z,94779.16
2022-11-18T23:27:05.098Z,94777.34
2022-11-18T23:29:31.599Z,94785.75
2022-11-18T23:31:58.037Z,94788.22
2022-11-18T23:34:25.710Z,94795.00
2022-11-18T23:36:52.160Z,94797.97
2022-11-18T23:39:18.945Z,94798.13
2022-11-18T23:41:45.681Z,94798.63
2022-11-18T23:44:12.120Z,94800.97
2022-11-18T23:46:38.572Z,94811.31
2022-11-18T23:49:08.719Z,94800.78
2022-11-18T23:51:35.276Z,94801.44
2022-11-18T23:54:01.775Z,94808.56
2022-11-18T23:56:28.270Z,94806.22
2022-11-18T23:58:56.447Z,94805.50
